Chancellor, Alabama
Current Conditions -  °F | °C
As of 10:15 PM on Sunday 21 Dec 2014 (Local Time) from KEDN Reporting Station
Haze Haze  
Wind Chill: 52°   Ceiling: 200
Heat Index: 52°   Visibility: 4mi
Dew Point: 50°   Wind: 5mph
Humidity: 94%   Direction: 90°E
Pressure: 30.02"   Gusts: NA
Location:  31.18°N, 85.88°W
Report Text: KEDN 220415Z AUTO 09004KT 4SM BR OVC002 11/10 A3002 RMK AO2
Loading
Personal Weather Stations






























Interactive Weather Map New forecast layout! Learn more

10-Day Weather Forecast

Advertisements
Track Severe Weather on mobile